Time;durP1;ratioP1;P1;durP2;ratioP2;P2;SDS_P1;SDS_P2;PMS_P1;PMS_P2;Temp;Humidity;BMP_temperature;BMP_pressure;BME280_temperature;BME280_humidity;BME280_pressure;Samples;Min_cycle;Max_cycle;Signal;HPM_P1;HPM_P2
2022/03/17 19:02:16;;;;;;;4.70;2.30;;;;;;;7.49;67.58;103249.03;5080664;27;1243168;-69
2022/03/17 19:04:43;;;;;;;9.40;2.60;;;;;;;7.34;68.43;103254.66;5113868;28;20028;-69
2022/03/17 19:07:09;;;;;;;11.98;2.33;;;;;;;7.16;68.23;103255.13;5106316;28;20097;-70
2022/03/17 19:09:55;;;;;;;14.70;2.42;;;;;;;7.01;69.03;103255.53;5089185;28;20042;-70
2022/03/17 19:12:22;;;;;;;16.15;3.05;;;;;;;6.91;69.73;103259.25;5089512;28;20044;-70
2022/03/17 19:15:03;;;;;;;15.15;3.20;;;;;;;6.81;70.07;103262.97;5089417;28;20035;-71
2022/03/17 19:17:38;;;;;;;11.05;2.67;;;;;;;6.65;70.14;103271.19;5098811;28;20039;-75
2022/03/17 19:20:05;;;;;;;5.30;1.85;;;;;;;6.51;70.74;103268.03;5092619;28;20044;-75
2022/03/17 19:22:42;;;;;;;8.90;2.47;;;;;;;6.39;70.67;103284.84;5081109;28;20064;-73
2022/03/17 19:25:09;;;;;;;9.57;2.50;;;;;;;6.38;71.65;103288.34;5086814;28;20051;-75
2022/03/17 19:27:48;;;;;;;8.95;2.22;;;;;;;6.33;72.32;103293.69;5067361;28;20126;-75
2022/03/17 19:30:33;;;;;;;6.97;2.08;;;;;;;6.25;72.84;103296.47;5089653;28;20537;-73
2022/03/17 19:33:11;;;;;;;6.35;1.80;;;;;;;6.15;72.96;103301.91;5095178;28;20055;-74
2022/03/17 19:35:39;;;;;;;22.30;3.92;;;;;;;6.02;73.18;103309.13;5089976;28;20046;-74
2022/03/17 19:38:12;;;;;;;4.28;1.55;;;;;;;5.95;73.38;103311.91;5073606;28;20066;-74
2022/03/17 19:43:43;;;;;;;10.27;2.65;;;;;;;5.85;73.71;103326.00;5084874;28;20819;-74
2022/03/17 19:46:12;;;;;;;11.32;2.63;;;;;;;5.79;74.19;103328.69;5086344;28;20048;-74
2022/03/17 19:48:50;;;;;;;9.10;2.92;;;;;;;5.76;74.42;103334.84;5093988;28;20123;-74
2022/03/17 19:51:25;;;;;;;7.57;2.95;;;;;;;5.80;74.89;103336.53;5088887;28;20069;-74
2022/03/17 19:53:57;;;;;;;;;;;;;;;5.72;74.97;103348.81;5081813;28;20054;-73
2022/03/17 19:56:25;;;;;;;11.02;2.55;;;;;;;5.64;75.01;103349.81;5086630;28;19927;-73
2022/03/17 19:58:53;;;;;;;14.73;3.65;;;;;;;5.57;75.31;103356.03;5083085;28;20047;-75
2022/03/17 20:01:22;;;;;;;11.00;3.10;;;;;;;5.52;75.35;103357.88;5083003;28;20131;-75
2022/03/17 20:03:50;;;;;;;13.48;3.92;;;;;;;5.48;75.94;103361.41;5080965;28;20129;-75
2022/03/17 20:06:27;;;;;;;10.93;2.85;;;;;;;5.44;76.05;103364.94;5087685;28;20044;-75
2022/03/17 20:08:55;;;;;;;10.45;3.08;;;;;;;5.41;76.34;103362.38;5084063;28;20202;-73
2022/03/17 20:14:27;;;;;;;8.82;2.88;;;;;;;5.34;76.14;103372.94;5011839;28;20057;-73
2022/03/17 20:16:59;;;;;;;27.65;4.15;;;;;;;5.30;77.03;103371.28;5069068;28;20037;-74
2022/03/17 20:19:27;;;;;;;11.98;3.28;;;;;;;5.27;77.07;103382.59;5078277;28;20503;-76
2022/03/17 20:21:55;;;;;;;11.48;3.05;;;;;;;5.22;77.27;103379.19;5078882;28;20051;-74
2022/03/17 20:24:32;;;;;;;8.15;2.80;;;;;;;5.21;76.85;103393.09;5073456;28;20383;-74
2022/03/17 20:26:59;;;;;;;10.40;2.22;;;;;;;5.19;76.74;103389.69;5058192;28;20040;-74
2022/03/17 20:29:36;;;;;;;12.48;3.42;;;;;;;5.17;76.86;103391.44;5072548;28;20082;-74
2022/03/17 20:32:04;;;;;;;7.93;2.45;;;;;;;5.13;77.34;103401.94;5074119;28;20036;-75
2022/03/17 20:34:47;;;;;;;6.45;2.25;;;;;;;5.13;77.04;103413.19;5058331;28;20051;-74
2022/03/17 20:37:15;;;;;;;18.27;2.78;;;;;;;5.11;77.78;103412.38;5074781;28;20052;-74
2022/03/17 20:39:45;;;;;;;12.18;3.15;;;;;;;5.08;77.76;103422.84;5073447;28;20044;-74
2022/03/17 20:42:13;;;;;;;11.15;2.95;;;;;;;5.03;78.20;103424.66;5072589;28;20056;-73
2022/03/17 20:44:55;;;;;;;8.70;2.50;;;;;;;5.01;78.64;103426.41;5075088;28;20176;-74
2022/03/17 20:47:21;;;;;;;16.52;3.70;;;;;;;5.00;78.34;103431.66;5061646;28;20044;-75
2022/03/17 20:49:49;;;;;;;11.98;3.38;;;;;;;4.99;79.19;103428.19;5079287;28;20787;-74
2022/03/17 20:52:29;;;;;;;8.85;2.42;;;;;;;4.98;79.11;103430.81;5058175;28;20059;-75
2022/03/17 20:54:55;;;;;;;7.18;2.30;;;;;;;4.96;78.99;103438.66;5075992;28;20066;-74
2022/03/17 20:57:37;;;;;;;13.20;3.45;;;;;;;4.94;78.95;103440.41;5073200;28;20036;-73
2022/03/17 21:00:05;;;;;;;8.60;3.10;;;;;;;4.93;78.62;103446.50;5075224;28;20044;-74
2022/03/17 21:02:41;;;;;;;10.20;3.38;;;;;;;4.92;78.58;103454.34;5051581;28;20072;-73
2022/03/17 21:05:13;;;;;;;9.38;2.63;;;;;;;4.87;78.89;103459.59;5057910;28;20530;-73
2022/03/17 21:07:48;;;;;;;15.85;2.80;;;;;;;4.82;79.56;103460.53;5055940;28;20071;-74
2022/03/17 21:10:15;;;;;;;10.55;2.78;;;;;;;4.79;79.06;103451.03;5052518;28;20037;-74
2022/03/17 21:12:55;;;;;;;5.93;2.22;;;;;;;4.78;79.25;103457.13;5052891;28;20052;-73
2022/03/17 21:15:21;;;;;;;16.23;2.60;;;;;;;4.76;78.91;103460.59;5056326;28;20048;-73
2022/03/17 21:17:48;;;;;;;11.82;3.75;;;;;;;4.73;79.32;103458.91;5050832;28;20048;-74
2022/03/17 21:20:27;;;;;;;10.20;3.03;;;;;;;4.72;79.57;103468.50;5056363;28;20044;-73
2022/03/17 21:22:54;;;;;;;8.38;3.35;;;;;;;4.67;80.39;103468.53;5054644;28;20550;-73
2022/03/17 21:25:33;;;;;;;8.18;3.03;;;;;;;4.65;80.23;103472.03;5064893;28;20040;-74
2022/03/17 21:28:01;;;;;;;9.60;3.65;;;;;;;4.62;80.41;103475.53;5068687;28;20048;-72
2022/03/17 21:30:35;;;;;;;12.52;3.60;;;;;;;4.57;80.55;103471.25;5076638;28;20112;-73
2022/03/17 21:33:02;;;;;;;6.65;3.40;;;;;;;4.52;79.76;103471.28;5069896;28;20227;-75
2022/03/17 21:35:52;;;;;;;8.63;3.08;;;;;;;4.44;81.78;103472.28;5059724;28;20059;-76
2022/03/17 21:38:22;;;;;;;18.85;3.90;;;;;;;4.37;82.44;103475.81;5060563;28;20108;-74
2022/03/17 21:41:02;;;;;;;10.35;2.70;;;;;;;4.40;82.29;103478.38;5064366;28;20052;-75
2022/03/17 21:43:45;;;;;;;16.35;3.58;;;;;;;4.35;82.96;103477.56;5053579;28;20051;-73
2022/03/17 21:46:13;;;;;;;14.63;4.05;;;;;;;4.24;82.61;103484.63;5056884;28;20632;-74
2022/03/17 21:48:51;;;;;;;10.88;3.28;;;;;;;4.16;82.39;103482.09;5055419;28;20059;-75
2022/03/17 21:51:20;;;;;;;14.70;3.60;;;;;;;4.11;82.46;103483.03;5052933;28;20051;-74
2022/03/17 21:53:47;;;;;;;14.48;3.72;;;;;;;4.11;82.08;103489.06;5052471;28;20050;-73
2022/03/17 21:56:13;;;;;;;10.25;2.63;;;;;;;4.10;82.13;103489.94;5050819;28;20618;-75
2022/03/17 21:58:42;;;;;;;11.98;2.75;;;;;;;4.13;83.04;103495.13;5054126;28;20040;-75
2022/03/17 22:01:13;;;;;;;13.23;3.15;;;;;;;4.12;83.13;103505.56;5057153;28;20043;-74
2022/03/17 22:03:39;;;;;;;12.65;2.65;;;;;;;4.17;84.16;103503.75;5074793;28;20040;-74
2022/03/17 22:06:06;;;;;;;17.10;3.75;;;;;;;4.10;84.42;103515.09;5069804;28;20044;-74
2022/03/17 22:21:54;;;;;;;14.23;4.82;;;;;;;3.96;85.26;103520.41;5081503;27;20401;-73
2022/03/17 22:24:20;;;;;;;14.50;4.43;;;;;;;3.96;84.50;103515.22;5088997;28;20048;-74
2022/03/17 22:26:54;;;;;;;11.63;3.45;;;;;;;3.94;84.40;103513.50;5082990;28;20028;-73
2022/03/17 22:29:26;;;;;;;20.67;4.60;;;;;;;3.97;83.61;103516.09;5084322;28;20040;-74
2022/03/17 22:31:52;;;;;;;21.05;3.78;;;;;;;3.90;82.95;103510.94;5085418;28;20074;-74
2022/03/17 22:34:22;;;;;;;15.00;3.17;;;;;;;3.87;83.14;103516.16;5084188;28;20044;-73
2022/03/17 22:39:18;;;;;;;9.30;3.10;;;;;;;3.79;83.54;103524.03;5074048;27;20416;-73
2022/03/17 22:41:44;;;;;;;5.93;1.88;;;;;;;3.74;84.51;103527.53;5062025;28;20037;-73
2022/03/17 22:44:11;;;;;;;7.97;2.17;;;;;;;3.66;84.23;103530.19;5060984;28;20059;-74
2022/03/17 22:46:39;;;;;;;7.90;2.15;;;;;;;3.59;84.51;103531.09;5051655;28;20053;-73
2022/03/17 22:49:13;;;;;;;10.60;2.75;;;;;;;3.54;84.40;103527.69;5057090;28;20052;-73
2022/03/17 22:51:40;;;;;;;10.32;2.22;;;;;;;3.52;85.22;103531.16;5060006;28;20112;-74
2022/03/17 22:54:06;;;;;;;8.25;2.83;;;;;;;3.45;85.57;103537.25;5049702;28;20059;-73
2022/03/17 22:56:35;;;;;;;6.88;2.33;;;;;;;3.43;85.56;103531.22;5052225;28;20171;-74
2022/03/17 22:59:01;;;;;;;12.30;2.90;;;;;;;3.50;85.63;103531.16;5051156;28;20048;-76
2022/03/17 23:01:28;;;;;;;15.95;3.60;;;;;;;3.40;86.18;103532.09;5048587;28;20745;-74
2022/03/17 23:03:55;;;;;;;13.57;3.60;;;;;;;3.32;85.95;103535.59;5058845;28;20496;-74
2022/03/17 23:06:29;;;;;;;12.00;2.75;;;;;;;3.25;85.90;103536.50;5066267;28;20055;-74
2022/03/17 23:09:00;;;;;;;11.10;2.63;;;;;;;3.19;86.37;103527.00;5067452;28;20042;-73
2022/03/17 23:11:36;;;;;;;19.80;4.07;;;;;;;3.15;86.28;103533.97;5054791;28;20084;-73
2022/03/17 23:14:07;;;;;;;;;;;;;;;3.09;85.70;103537.44;5059554;28;20079;-74
2022/03/17 23:16:37;;;;;;;11.05;2.55;;;;;;;3.05;86.16;103533.13;5052836;28;19936;-73
2022/03/17 23:19:05;;;;;;;8.02;1.98;;;;;;;3.07;86.32;103538.31;5056592;28;20049;-74
2022/03/17 23:21:33;;;;;;;13.23;3.33;;;;;;;3.06;87.25;103545.25;5053981;28;20559;-75
2022/03/17 23:24:01;;;;;;;23.60;4.40;;;;;;;3.00;87.61;103546.97;5060080;28;20048;-74
2022/03/17 23:26:35;;;;;;;16.13;3.53;;;;;;;2.95;88.02;103556.53;5052897;28;20073;-75
2022/03/17 23:29:17;;;;;;;9.75;2.17;;;;;;;2.89;87.84;103556.56;5055474;28;20052;-74
2022/03/17 23:31:44;;;;;;;12.45;3.08;;;;;;;2.88;87.41;103554.84;5058068;28;20122;-73
2022/03/17 23:34:10;;;;;;;20.33;3.08;;;;;;;2.87;88.27;103560.88;5049718;28;20045;-73
2022/03/17 23:36:38;;;;;;;19.17;3.45;;;;;;;2.80;88.25;103566.97;5056563;28;20055;-73
2022/03/17 23:39:12;;;;;;;12.95;2.78;;;;;;;2.79;88.06;103560.03;5061614;28;20394;-73
2022/03/17 23:41:43;;;;;;;11.18;2.78;;;;;;;2.75;88.54;103558.34;5064799;28;20076;-73
2022/03/17 23:44:14;;;;;;;15.50;3.42;;;;;;;2.78;88.91;103560.91;5063199;28;20040;-74
2022/03/17 23:46:41;;;;;;;26.90;3.83;;;;;;;2.75;88.86;103564.38;5062621;28;20097;-74
2022/03/17 23:49:07;;;;;;;17.33;3.35;;;;;;;2.70;88.96;103573.03;5050260;28;20068;-73
2022/03/17 23:51:34;;;;;;;14.77;2.65;;;;;;;2.68;88.69;103572.19;5046707;28;20413;-76
2022/03/17 23:54:01;;;;;;;14.50;2.65;;;;;;;2.67;88.96;103581.72;5057660;28;20399;-73
2022/03/17 23:56:39;;;;;;;18.17;3.47;;;;;;;2.59;89.03;103574.78;5057859;28;20051;-73
2022/03/17 23:59:05;;;;;;;19.50;4.13;;;;;;;2.60;89.03;103574.81;5042464;28;20125;-74
